createdAt,value
2016-09-29T00:00:16.420Z,0.00
2016-09-29T00:01:16.932Z,0.00
2016-09-29T00:02:17.601Z,0.00
2016-09-29T00:03:17.963Z,0.00
2016-09-29T00:04:18.483Z,0.00
2016-09-29T00:05:19.139Z,0.00
2016-09-29T00:06:19.497Z,0.00
2016-09-29T00:07:20.008Z,0.00
2016-09-29T00:08:20.521Z,0.00
2016-09-29T00:09:21.033Z,0.00
2016-09-29T00:10:21.557Z,0.00
2016-09-29T00:11:22.064Z,0.00
2016-09-29T00:12:22.578Z,0.00
2016-09-29T00:13:23.091Z,0.00
2016-09-29T00:14:23.754Z,0.00
2016-09-29T00:15:24.126Z,0.00
2016-09-29T00:16:24.778Z,0.00
2016-09-29T00:17:25.320Z,0.00
2016-09-29T00:18:25.656Z,0.00
2016-09-29T00:19:26.316Z,0.00
2016-09-29T00:20:26.676Z,0.00
2016-09-29T00:21:27.195Z,0.00
2016-09-29T00:22:27.857Z,0.00
2016-09-29T00:23:28.214Z,0.00
2016-09-29T00:24:28.746Z,0.00
2016-09-29T00:25:29.239Z,0.00
2016-09-29T00:26:29.757Z,0.00
2016-09-29T00:27:30.269Z,0.00
2016-09-29T00:28:30.782Z,0.00
2016-09-29T00:29:31.294Z,0.00
2016-09-29T00:30:31.811Z,0.00
2016-09-29T00:31:32.320Z,0.00
2016-09-29T00:32:32.833Z,0.00
2016-09-29T00:33:33.488Z,0.00
2016-09-29T00:34:33.852Z,0.00
2016-09-29T00:35:34.371Z,0.00
2016-09-29T00:36:34.885Z,0.00
2016-09-29T00:37:35.404Z,0.00
2016-09-29T00:38:35.919Z,0.00
2016-09-29T00:39:36.437Z,0.00
2016-09-29T00:40:36.951Z,0.00
2016-09-29T00:41:37.464Z,0.00
2016-09-29T00:42:37.978Z,0.00
2016-09-29T00:43:38.488Z,0.00
2016-09-29T00:44:39.001Z,0.00
2016-09-29T00:45:39.514Z,0.00
2016-09-29T00:46:40.036Z,0.00
2016-09-29T00:47:40.540Z,0.00
2016-09-29T00:48:41.049Z,0.00
2016-09-29T00:49:41.567Z,0.00
2016-09-29T00:50:42.259Z,0.00
2016-09-29T00:51:42.601Z,0.00
2016-09-29T00:52:43.103Z,0.00
2016-09-29T00:53:43.617Z,0.00
2016-09-29T00:54:44.128Z,0.00
2016-09-29T00:55:44.639Z,0.00
2016-09-29T00:56:45.150Z,0.00
2016-09-29T00:57:45.659Z,0.00
2016-09-29T00:58:46.171Z,0.00
2016-09-29T00:59:46.686Z,0.00
2016-09-29T01:00:47.347Z,0.00
2016-09-29T01:01:47.703Z,0.00
2016-09-29T01:02:48.214Z,0.00
2016-09-29T01:03:48.728Z,0.00
2016-09-29T01:04:49.247Z,0.00
2016-09-29T01:05:49.904Z,0.00
2016-09-29T01:06:50.268Z,0.00
2016-09-29T01:07:50.812Z,0.00
2016-09-29T01:08:51.291Z,0.00
2016-09-29T01:09:51.807Z,0.00
2016-09-29T01:10:52.315Z,0.00
2016-09-29T01:11:52.830Z,0.00
2016-09-29T01:12:53.338Z,0.00
2016-09-29T01:13:53.850Z,0.00
2016-09-29T01:14:54.365Z,0.00
2016-09-29T01:15:54.890Z,0.00
2016-09-29T01:16:55.545Z,0.00
2016-09-29T01:17:55.919Z,0.00
2016-09-29T01:18:56.419Z,0.00
2016-09-29T01:19:56.933Z,0.00
2016-09-29T01:20:57.445Z,0.00
2016-09-29T01:21:57.956Z,0.00
2016-09-29T01:22:58.475Z,0.00
2016-09-29T01:23:58.988Z,0.00
2016-09-29T01:24:59.498Z,0.00
2016-09-29T01:26:00.010Z,0.00
2016-09-29T01:27:00.518Z,0.00
2016-09-29T01:28:01.034Z,0.00
2016-09-29T01:29:01.557Z,0.00
2016-09-29T01:30:02.060Z,0.00
2016-09-29T01:31:02.567Z,0.00
2016-09-29T01:32:03.097Z,0.00
2016-09-29T01:33:03.592Z,0.00
2016-09-29T01:34:04.254Z,0.00
2016-09-29T01:35:04.619Z,0.00
2016-09-29T01:36:05.133Z,0.00
2016-09-29T01:37:05.648Z,0.00
2016-09-29T01:38:06.312Z,0.00
2016-09-29T01:39:06.665Z,0.00
2016-09-29T01:40:07.180Z,0.00
2016-09-29T01:41:07.689Z,0.00
2016-09-29T01:42:08.202Z,0.00
2016-09-29T01:43:08.715Z,0.00
2016-09-29T01:44:09.228Z,0.00
2016-09-29T01:45:09.746Z,0.00
2016-09-29T01:46:10.254Z,0.00
2016-09-29T01:47:10.917Z,0.00
2016-09-29T01:48:11.281Z,0.00
2016-09-29T01:49:11.799Z,0.00
2016-09-29T01:50:12.312Z,0.00
2016-09-29T01:51:12.831Z,0.00
2016-09-29T01:52:13.352Z,0.00
2016-09-29T01:53:13.864Z,0.00
2016-09-29T01:54:14.374Z,0.00
2016-09-29T01:55:14.884Z,0.00
2016-09-29T01:56:15.392Z,0.00
2016-09-29T01:57:15.913Z,0.00
2016-09-29T01:58:16.417Z,0.00
2016-09-29T01:59:16.927Z,0.00
2016-09-29T02:00:17.443Z,0.00
2016-09-29T02:01:17.953Z,0.00
2016-09-29T02:02:18.469Z,0.00
2016-09-29T02:03:18.980Z,0.00
2016-09-29T02:04:19.488Z,0.00
2016-09-29T02:05:20.012Z,0.00
2016-09-29T02:06:20.522Z,0.00
2016-09-29T02:07:21.043Z,0.00
2016-09-29T02:08:21.545Z,0.00
2016-09-29T02:09:22.057Z,0.00
2016-09-29T02:10:22.577Z,0.00
2016-09-29T02:11:23.070Z,0.00
2016-09-29T02:12:23.881Z,0.00
2016-09-29T02:13:24.094Z,0.00
2016-09-29T02:14:24.604Z,0.00
2016-09-29T02:15:25.118Z,0.00
2016-09-29T02:16:25.780Z,0.00
2016-09-29T02:17:26.142Z,0.00
2016-09-29T02:18:26.650Z,0.00
2016-09-29T02:19:27.164Z,0.00
2016-09-29T02:20:27.676Z,0.00
2016-09-29T02:21:28.180Z,0.00
2016-09-29T02:22:28.842Z,0.00
2016-09-29T02:23:29.209Z,0.00
2016-09-29T02:24:29.874Z,0.00
2016-09-29T02:25:30.236Z,0.00
2016-09-29T02:26:30.751Z,0.00
2016-09-29T02:27:31.420Z,0.00
2016-09-29T02:28:31.790Z,0.00
2016-09-29T02:29:32.305Z,0.00
2016-09-29T02:30:32.849Z,0.00
2016-09-29T02:31:33.332Z,0.00
2016-09-29T02:32:34.001Z,0.00
2016-09-29T02:33:34.363Z,0.00
2016-09-29T02:34:34.874Z,0.00
2016-09-29T02:35:35.395Z,0.00
2016-09-29T02:36:35.903Z,0.00
2016-09-29T02:37:36.414Z,0.00
2016-09-29T02:38:36.923Z,0.00
2016-09-29T02:39:37.444Z,0.00
2016-09-29T02:40:37.956Z,0.00
2016-09-29T02:41:38.465Z,0.00
2016-09-29T02:42:39.134Z,0.00
2016-09-29T02:43:39.641Z,0.00
2016-09-29T02:44:40.009Z,0.00
2016-09-29T02:45:40.676Z,0.00
2016-09-29T02:46:41.037Z,0.00
2016-09-29T02:47:41.549Z,0.00
2016-09-29T02:48:42.066Z,0.00
2016-09-29T02:49:42.578Z,0.00
2016-09-29T02:50:43.091Z,0.00
2016-09-29T02:51:43.607Z,0.00
2016-09-29T02:52:44.116Z,0.00
2016-09-29T02:53:44.780Z,0.00
2016-09-29T02:54:45.138Z,0.00
2016-09-29T02:55:45.654Z,0.00
2016-09-29T02:56:46.166Z,0.00
2016-09-29T02:57:46.678Z,0.00
2016-09-29T02:58:47.187Z,0.00
2016-09-29T02:59:47.715Z,0.00
2016-09-29T03:00:48.209Z,0.00
2016-09-29T03:01:48.727Z,0.00
2016-09-29T03:02:49.242Z,0.00
2016-09-29T03:03:49.777Z,0.00
2016-09-29T03:04:50.277Z,0.00
2016-09-29T03:05:50.791Z,0.00
2016-09-29T03:06:51.310Z,0.00
2016-09-29T03:07:51.972Z,0.00
2016-09-29T03:08:52.341Z,0.00
2016-09-29T03:09:53.000Z,0.00
2016-09-29T03:10:53.363Z,0.00
2016-09-29T03:11:53.872Z,0.00
2016-09-29T03:12:54.388Z,0.00
2016-09-29T03:13:54.895Z,0.00
2016-09-29T03:14:55.407Z,0.00
2016-09-29T03:15:55.917Z,0.00
2016-09-29T03:16:56.435Z,0.00
2016-09-29T03:17:56.935Z,0.00
2016-09-29T03:18:57.449Z,0.00
2016-09-29T03:19:57.957Z,0.00
2016-09-29T03:20:58.475Z,0.00
2016-09-29T03:21:58.987Z,0.00
2016-09-29T03:22:59.496Z,0.00
2016-09-29T03:24:00.007Z,0.00
2016-09-29T03:25:00.680Z,0.00
2016-09-29T03:26:01.032Z,0.00
2016-09-29T03:27:01.546Z,0.00
2016-09-29T03:28:02.058Z,0.00
2016-09-29T03:29:02.575Z,0.00
2016-09-29T03:30:04.584Z,0.00
2016-09-29T03:31:03.624Z,0.00
2016-09-29T03:32:04.132Z,0.00
2016-09-29T03:33:04.619Z,0.00
2016-09-29T03:34:05.132Z,0.00
2016-09-29T03:35:05.640Z,0.00
2016-09-29T03:36:06.156Z,0.00
2016-09-29T03:37:06.665Z,0.00
2016-09-29T03:38:07.177Z,0.00
2016-09-29T03:39:07.687Z,0.00
2016-09-29T03:40:08.200Z,0.00
2016-09-29T03:41:08.711Z,0.00
2016-09-29T03:42:09.374Z,0.00
2016-09-29T03:43:09.741Z,0.00
2016-09-29T03:44:10.257Z,0.00
2016-09-29T03:45:10.767Z,0.00
2016-09-29T03:46:11.284Z,0.00
2016-09-29T03:47:11.798Z,0.00
2016-09-29T03:48:12.309Z,0.00
2016-09-29T03:49:12.825Z,0.00
2016-09-29T03:50:13.330Z,0.00
2016-09-29T03:51:13.846Z,0.00
2016-09-29T03:52:14.365Z,0.00
2016-09-29T03:53:14.873Z,0.00
2016-09-29T03:54:15.387Z,0.00
2016-09-29T03:55:15.896Z,0.00
2016-09-29T03:56:16.566Z,0.00
2016-09-29T03:57:16.924Z,0.00
2016-09-29T03:58:17.442Z,0.00
2016-09-29T03:59:17.952Z,0.00
2016-09-29T04:00:18.462Z,0.00
2016-09-29T04:01:18.983Z,0.00
2016-09-29T04:02:19.489Z,0.00
2016-09-29T04:03:19.998Z,0.00
2016-09-29T04:04:20.511Z,0.00
2016-09-29T04:05:21.028Z,0.00
2016-09-29T04:06:21.532Z,0.00
2016-09-29T04:07:22.189Z,0.00
2016-09-29T04:08:22.554Z,0.00
2016-09-29T04:09:23.067Z,0.00
2016-09-29T04:10:23.598Z,0.00
2016-09-29T04:11:24.089Z,0.00
2016-09-29T04:12:24.602Z,0.00
2016-09-29T04:13:25.118Z,0.00
2016-09-29T04:14:25.632Z,0.00
2016-09-29T04:15:26.147Z,0.00
2016-09-29T04:16:26.801Z,0.00
2016-09-29T04:17:27.166Z,0.00
2016-09-29T04:18:27.679Z,0.00
2016-09-29T04:19:28.199Z,0.00
2016-09-29T04:20:28.718Z,0.00
2016-09-29T04:21:29.243Z,0.00
2016-09-29T04:22:29.746Z,0.00
2016-09-29T04:23:30.261Z,0.00
2016-09-29T04:24:30.771Z,0.00
2016-09-29T04:25:31.278Z,0.00
2016-09-29T04:26:31.793Z,0.00
2016-09-29T04:27:32.310Z,0.00
2016-09-29T04:28:32.825Z,0.00
2016-09-29T04:29:33.340Z,0.00
2016-09-29T04:30:33.852Z,0.00
2016-09-29T04:31:34.367Z,0.00
2016-09-29T04:32:34.882Z,0.00
2016-09-29T04:33:35.391Z,0.00
2016-09-29T04:34:35.902Z,0.00
2016-09-29T04:35:36.414Z,0.00
2016-09-29T04:36:36.923Z,0.00
2016-09-29T04:37:37.588Z,0.00
2016-09-29T04:38:37.946Z,0.00
2016-09-29T04:39:38.461Z,0.00
2016-09-29T04:40:38.975Z,0.00
2016-09-29T04:41:39.499Z,0.00
2016-09-29T04:42:40.164Z,0.00
2016-09-29T04:43:40.598Z,0.00
2016-09-29T04:44:41.043Z,0.00
2016-09-29T04:45:41.553Z,0.00
2016-09-29T04:46:42.065Z,0.00
2016-09-29T04:47:42.576Z,0.00
2016-09-29T04:48:43.108Z,0.00
2016-09-29T04:49:44.504Z,0.00
2016-09-29T04:50:44.138Z,0.00
2016-09-29T04:51:44.631Z,0.00
2016-09-29T04:52:45.149Z,0.00
2016-09-29T04:53:45.658Z,0.00
2016-09-29T04:54:46.176Z,0.00
2016-09-29T04:55:46.689Z,0.00
2016-09-29T04:56:47.209Z,0.00
2016-09-29T04:57:47.727Z,0.00
2016-09-29T04:58:48.395Z,0.00
2016-09-29T04:59:48.756Z,0.00
2016-09-29T05:00:49.271Z,0.00
2016-09-29T05:01:49.928Z,0.00
2016-09-29T05:02:50.439Z,0.00
2016-09-29T05:03:50.791Z,0.00
2016-09-29T05:04:51.306Z,0.00
2016-09-29T05:05:51.820Z,0.00
2016-09-29T05:06:52.326Z,0.00
2016-09-29T05:07:52.839Z,0.00
2016-09-29T05:08:53.356Z,0.00
2016-09-29T05:09:53.861Z,0.00
2016-09-29T05:10:54.373Z,0.00
2016-09-29T05:11:55.032Z,0.00
2016-09-29T05:12:55.390Z,0.00
2016-09-29T05:13:55.932Z,0.00
2016-09-29T05:14:56.423Z,0.00
2016-09-29T05:15:56.926Z,0.00
2016-09-29T05:16:57.436Z,0.00
2016-09-29T05:17:57.957Z,0.00
2016-09-29T05:18:58.464Z,0.00
2016-09-29T05:19:58.979Z,0.00
2016-09-29T05:20:59.640Z,0.00
2016-09-29T05:22:01.500Z,0.00
2016-09-29T05:23:00.508Z,0.00
2016-09-29T05:24:01.024Z,0.00
2016-09-29T05:25:01.537Z,0.00
2016-09-29T05:26:02.048Z,0.00
2016-09-29T05:27:02.565Z,0.00
2016-09-29T05:28:03.072Z,0.00
2016-09-29T05:29:03.585Z,0.00
2016-09-29T05:30:04.124Z,1.00
2016-09-29T05:31:04.612Z,1.00
2016-09-29T05:32:05.124Z,2.00
2016-09-29T05:33:05.663Z,2.00
2016-09-29T05:34:06.166Z,2.00
2016-09-29T05:35:06.676Z,2.00
2016-09-29T05:36:07.195Z,2.00
2016-09-29T05:37:07.860Z,2.00
2016-09-29T05:38:08.217Z,3.00
2016-09-29T05:39:08.728Z,3.00
2016-09-29T05:40:09.246Z,3.00
2016-09-29T05:41:09.754Z,3.00
2016-09-29T05:42:10.266Z,3.00
2016-09-29T05:43:10.931Z,3.00
2016-09-29T05:44:11.300Z,4.00
2016-09-29T05:45:11.798Z,4.00
2016-09-29T05:46:12.309Z,4.00
2016-09-29T05:47:12.820Z,4.00
2016-09-29T05:48:13.332Z,5.00
2016-09-29T05:49:13.869Z,5.00
2016-09-29T05:50:14.384Z,5.00
2016-09-29T05:51:14.873Z,5.00
2016-09-29T05:52:15.384Z,6.00
2016-09-29T05:53:15.903Z,6.00
2016-09-29T05:54:16.413Z,6.00
2016-09-29T05:55:16.949Z,6.00
2016-09-29T05:56:17.443Z,6.00
2016-09-29T05:57:17.953Z,6.00
2016-09-29T05:58:18.459Z,7.00
2016-09-29T05:59:18.968Z,7.00
2016-09-29T06:00:19.481Z,7.00
2016-09-29T06:01:19.995Z,7.00
2016-09-29T06:02:20.508Z,7.00
2016-09-29T06:03:21.174Z,7.00
2016-09-29T06:04:21.537Z,7.00
2016-09-29T06:05:22.070Z,7.00
2016-09-29T06:06:22.561Z,7.00
2016-09-29T06:07:23.074Z,7.00
2016-09-29T06:08:23.584Z,7.00
2016-09-29T06:09:24.099Z,7.00
2016-09-29T06:10:24.615Z,7.00
2016-09-29T06:11:25.132Z,8.00
2016-09-29T06:12:25.797Z,12.00
2016-09-29T06:13:26.159Z,13.00
2016-09-29T06:14:26.680Z,11.00
2016-09-29T06:15:27.185Z,7.00
2016-09-29T06:16:27.699Z,7.00
2016-09-29T06:17:28.215Z,7.00
2016-09-29T06:18:28.729Z,7.00
2016-09-29T06:19:29.240Z,7.00
2016-09-29T06:20:29.774Z,7.00
2016-09-29T06:21:30.265Z,7.00
2016-09-29T06:22:30.786Z,7.00
2016-09-29T06:23:31.292Z,7.00
2016-09-29T06:24:31.955Z,7.00
2016-09-29T06:25:32.465Z,8.00
2016-09-29T06:26:32.844Z,8.00
2016-09-29T06:27:33.498Z,8.00
2016-09-29T06:28:33.854Z,8.00
2016-09-29T06:29:34.366Z,8.00
2016-09-29T06:30:35.028Z,8.00
2016-09-29T06:31:35.392Z,8.00
2016-09-29T06:32:35.908Z,8.00
2016-09-29T06:33:36.417Z,8.00
2016-09-29T06:34:36.924Z,8.00
2016-09-29T06:35:37.434Z,8.00
2016-09-29T06:36:37.962Z,8.00
2016-09-29T06:37:38.467Z,8.00
2016-09-29T06:38:39.128Z,8.00
2016-09-29T06:39:39.493Z,8.00
2016-09-29T06:40:40.004Z,8.00
2016-09-29T06:41:40.518Z,8.00
2016-09-29T06:42:41.034Z,8.00
2016-09-29T06:43:41.544Z,8.00
2016-09-29T06:44:42.214Z,8.00
2016-09-29T06:45:42.587Z,8.00
2016-09-29T06:46:43.089Z,8.00
2016-09-29T06:47:43.609Z,8.00
2016-09-29T06:48:44.133Z,8.00
2016-09-29T06:49:44.645Z,8.00
2016-09-29T06:50:45.155Z,9.00
2016-09-29T06:51:45.822Z,9.00
2016-09-29T06:52:46.180Z,9.00
2016-09-29T06:53:46.843Z,9.00
2016-09-29T06:54:47.206Z,10.00
2016-09-29T06:55:47.721Z,10.00
2016-09-29T06:56:48.229Z,11.00
2016-09-29T06:57:50.090Z,11.00
2016-09-29T06:58:49.269Z,12.00
2016-09-29T06:59:49.793Z,16.00
2016-09-29T07:00:50.275Z,22.00
2016-09-29T07:01:50.787Z,22.00
2016-09-29T07:02:51.298Z,25.00
2016-09-29T07:03:51.806Z,30.00
2016-09-29T07:04:52.342Z,31.00
2016-09-29T07:05:52.830Z,27.00
2016-09-29T07:06:53.339Z,20.00
2016-09-29T07:07:54.003Z,24.00
2016-09-29T07:08:54.365Z,24.00
2016-09-29T07:09:54.874Z,19.00
2016-09-29T07:10:55.388Z,23.00
2016-09-29T07:11:55.898Z,22.00
2016-09-29T07:12:56.410Z,28.00
2016-09-29T07:13:56.917Z,24.00
2016-09-29T07:14:57.431Z,34.00
2016-09-29T07:15:57.940Z,34.00
2016-09-29T07:16:58.484Z,34.00
2016-09-29T07:17:58.965Z,38.00
2016-09-29T07:18:59.478Z,36.00
2016-09-29T07:19:59.987Z,34.00
2016-09-29T07:21:00.502Z,34.00
2016-09-29T07:22:01.020Z,37.00
2016-09-29T07:23:01.531Z,37.00
2016-09-29T07:24:02.044Z,34.00
2016-09-29T07:25:02.709Z,34.00
2016-09-29T07:26:03.106Z,36.00
2016-09-29T07:27:03.598Z,34.00
2016-09-29T07:28:04.103Z,39.00
2016-09-29T07:29:04.612Z,37.00
2016-09-29T07:30:05.127Z,33.00
2016-09-29T07:31:05.640Z,30.00
2016-09-29T07:32:06.163Z,31.00
2016-09-29T07:33:06.661Z,33.00
2016-09-29T07:34:07.323Z,34.00
2016-09-29T07:35:07.687Z,49.00
2016-09-29T07:36:08.195Z,50.00
2016-09-29T07:37:08.715Z,47.00
2016-09-29T07:38:09.223Z,42.00
2016-09-29T07:39:09.894Z,34.00
2016-09-29T07:40:10.255Z,34.00
2016-09-29T07:41:10.771Z,34.00
2016-09-29T07:42:11.276Z,35.00
2016-09-29T07:43:11.792Z,36.00
2016-09-29T07:44:12.303Z,30.00
2016-09-29T07:45:12.814Z,29.00
2016-09-29T07:46:13.327Z,33.00
2016-09-29T07:47:13.889Z,33.00
2016-09-29T07:48:14.525Z,36.00
2016-09-29T07:49:14.861Z,36.00
2016-09-29T07:50:15.366Z,34.00
2016-09-29T07:51:15.880Z,31.00
2016-09-29T07:52:16.399Z,25.00
2016-09-29T07:53:16.901Z,24.00
2016-09-29T07:54:17.411Z,24.00
2016-09-29T07:55:17.924Z,25.00
2016-09-29T07:56:18.438Z,27.00
2016-09-29T07:57:18.942Z,29.00
2016-09-29T07:58:19.454Z,27.00
2016-09-29T07:59:19.967Z,26.00
2016-09-29T08:00:20.474Z,26.00
2016-09-29T08:01:20.988Z,26.00
2016-09-29T08:02:21.506Z,28.00
2016-09-29T08:03:22.022Z,26.00
2016-09-29T08:04:22.540Z,26.00
2016-09-29T08:05:23.058Z,26.00
2016-09-29T08:06:23.576Z,27.00
2016-09-29T08:07:24.090Z,32.00
2016-09-29T08:08:24.598Z,40.00
2016-09-29T08:09:25.261Z,42.00
2016-09-29T08:10:25.622Z,38.00
2016-09-29T08:11:26.143Z,36.00
2016-09-29T08:12:26.644Z,34.00
2016-09-29T08:13:27.166Z,33.00
2016-09-29T08:14:27.819Z,31.00
2016-09-29T08:15:28.186Z,29.00
2016-09-29T08:16:28.846Z,30.00
2016-09-29T08:17:29.211Z,30.00
2016-09-29T08:18:29.716Z,34.00
2016-09-29T08:19:30.289Z,37.00
2016-09-29T08:20:30.747Z,38.00
2016-09-29T08:21:31.285Z,39.00
2016-09-29T08:22:31.806Z,35.00
2016-09-29T08:23:32.429Z,32.00
2016-09-29T08:24:32.808Z,30.00
2016-09-29T08:25:33.311Z,29.00
2016-09-29T08:26:33.820Z,28.00
2016-09-29T08:27:34.481Z,27.00
2016-09-29T08:28:34.995Z,28.00
2016-09-29T08:29:35.357Z,29.00
2016-09-29T08:30:35.873Z,29.00
2016-09-29T08:31:36.381Z,28.00
2016-09-29T08:32:37.046Z,27.00
2016-09-29T08:33:37.409Z,26.00
2016-09-29T08:34:38.975Z,28.00
2016-09-29T08:35:38.438Z,29.00
2016-09-29T08:36:38.946Z,33.00
2016-09-29T08:37:39.610Z,38.00
2016-09-29T08:38:39.975Z,49.00
2016-09-29T08:39:40.511Z,53.00
2016-09-29T08:40:41.013Z,55.00
2016-09-29T08:41:41.529Z,67.00
2016-09-29T08:42:42.196Z,80.00
2016-09-29T08:43:42.557Z,79.00
2016-09-29T08:44:43.074Z,73.00
2016-09-29T08:45:43.744Z,70.00
2016-09-29T08:46:44.100Z,52.00
2016-09-29T08:47:44.620Z,49.00
2016-09-29T08:48:45.138Z,43.00
2016-09-29T08:49:45.644Z,48.00
2016-09-29T08:50:46.307Z,52.00
2016-09-29T08:51:46.669Z,56.00
2016-09-29T08:52:47.177Z,65.00
2016-09-29T08:53:47.690Z,71.00
2016-09-29T08:54:48.351Z,71.00
2016-09-29T08:55:48.715Z,74.00
2016-09-29T08:56:49.231Z,68.00
2016-09-29T08:57:49.888Z,59.00
2016-09-29T08:58:50.259Z,62.00
2016-09-29T08:59:50.903Z,63.00
2016-09-29T09:00:51.267Z,63.00
2016-09-29T09:01:51.781Z,67.00
2016-09-29T09:02:52.290Z,69.00
2016-09-29T09:03:52.808Z,69.00
2016-09-29T09:04:53.310Z,65.00
2016-09-29T09:05:53.825Z,63.00
2016-09-29T09:06:54.333Z,62.00
2016-09-29T09:07:54.846Z,52.00
2016-09-29T09:08:55.357Z,45.00
2016-09-29T09:09:55.877Z,53.00
2016-09-29T09:10:56.391Z,56.00
2016-09-29T09:11:56.901Z,55.00
2016-09-29T09:12:57.412Z,62.00
2016-09-29T09:13:57.945Z,69.00
2016-09-29T09:14:58.585Z,73.00
2016-09-29T09:15:58.946Z,75.00
2016-09-29T09:16:59.466Z,76.00
2016-09-29T09:17:59.981Z,81.00
2016-09-29T09:19:00.494Z,69.00
2016-09-29T09:20:01.155Z,64.00
2016-09-29T09:21:01.557Z,64.00
2016-09-29T09:22:02.034Z,46.00
2016-09-29T09:23:02.551Z,44.00
2016-09-29T09:24:03.056Z,63.00
2016-09-29T09:25:03.597Z,81.00
2016-09-29T09:26:04.094Z,85.00
2016-09-29T09:27:04.595Z,87.00
2016-09-29T09:28:05.256Z,90.00
2016-09-29T09:29:05.770Z,96.00
2016-09-29T09:30:06.136Z,99.00
2016-09-29T09:31:06.634Z,99.00
2016-09-29T09:32:07.296Z,99.00
2016-09-29T09:33:07.658Z,99.00
2016-09-29T09:34:08.171Z,99.00
2016-09-29T09:35:08.679Z,99.00
2016-09-29T09:36:09.197Z,99.00
2016-09-29T09:37:09.859Z,99.00
2016-09-29T09:38:10.219Z,99.00
2016-09-29T09:39:10.742Z,99.00
2016-09-29T09:40:11.249Z,99.00
2016-09-29T09:41:11.766Z,99.00
2016-09-29T09:42:12.267Z,99.00
2016-09-29T09:43:12.929Z,93.00
2016-09-29T09:44:13.293Z,95.00
2016-09-29T09:45:13.803Z,99.00
2016-09-29T09:46:14.327Z,99.00
2016-09-29T09:47:14.829Z,99.00
2016-09-29T09:48:15.338Z,99.00
2016-09-29T09:49:15.849Z,99.00
2016-09-29T09:50:16.363Z,99.00
2016-09-29T09:51:16.869Z,99.00
2016-09-29T09:52:18.732Z,99.00
2016-09-29T09:53:18.047Z,99.00
2016-09-29T09:54:18.408Z,99.00
2016-09-29T09:55:18.929Z,99.00
2016-09-29T09:56:19.443Z,96.00
2016-09-29T09:57:19.956Z,99.00
2016-09-29T09:58:20.618Z,99.00
2016-09-29T09:59:20.981Z,99.00
2016-09-29T10:00:21.486Z,99.00
2016-09-29T10:01:22.001Z,99.00
2016-09-29T10:02:22.666Z,99.00
2016-09-29T10:03:23.031Z,99.00
2016-09-29T10:04:23.546Z,99.00
2016-09-29T10:05:24.052Z,99.00
2016-09-29T10:06:24.566Z,99.00
2016-09-29T10:07:25.077Z,99.00
2016-09-29T10:08:25.589Z,99.00
2016-09-29T10:09:26.103Z,99.00
2016-09-29T10:10:26.622Z,99.00
2016-09-29T10:11:27.127Z,99.00
2016-09-29T10:12:27.639Z,99.00
2016-09-29T10:13:28.149Z,99.00
2016-09-29T10:14:28.660Z,99.00
2016-09-29T10:15:29.171Z,95.00
2016-09-29T10:16:29.834Z,99.00
2016-09-29T10:17:30.201Z,99.00
2016-09-29T10:18:30.862Z,98.00
2016-09-29T10:19:31.221Z,95.00
2016-09-29T10:20:31.740Z,88.00
2016-09-29T10:21:32.396Z,81.00
2016-09-29T10:22:32.748Z,99.00
2016-09-29T10:23:33.428Z,99.00
2016-09-29T10:24:33.767Z,99.00
2016-09-29T10:25:34.281Z,99.00
2016-09-29T10:26:34.858Z,99.00
2016-09-29T10:27:35.306Z,99.00
2016-09-29T10:28:35.821Z,99.00
2016-09-29T10:29:36.332Z,99.00
2016-09-29T10:30:36.851Z,99.00
2016-09-29T10:31:37.364Z,99.00
2016-09-29T10:32:37.880Z,99.00
2016-09-29T10:33:38.548Z,99.00
2016-09-29T10:34:38.907Z,99.00
2016-09-29T10:35:39.578Z,99.00
2016-09-29T10:36:39.938Z,99.00
2016-09-29T10:37:40.461Z,92.00
2016-09-29T10:38:40.960Z,99.00
2016-09-29T10:39:41.477Z,99.00
2016-09-29T10:40:42.143Z,99.00
2016-09-29T10:41:42.504Z,99.00
2016-09-29T10:42:43.009Z,99.00
2016-09-29T10:43:43.526Z,94.00
2016-09-29T10:44:44.185Z,91.00
2016-09-29T10:45:44.539Z,87.00
2016-09-29T10:46:45.055Z,83.00
2016-09-29T10:47:45.565Z,83.00
2016-09-29T10:48:46.077Z,89.00
2016-09-29T10:49:46.588Z,93.00
2016-09-29T10:50:47.104Z,99.00
2016-09-29T10:51:47.613Z,99.00
2016-09-29T10:52:48.125Z,99.00
2016-09-29T10:53:48.637Z,99.00
2016-09-29T10:54:49.172Z,99.00
2016-09-29T10:55:49.663Z,99.00
2016-09-29T10:56:50.175Z,99.00
2016-09-29T10:57:50.691Z,99.00
2016-09-29T10:58:51.198Z,99.00
2016-09-29T10:59:51.712Z,99.00
2016-09-29T11:00:52.376Z,99.00
2016-09-29T11:01:52.736Z,99.00
2016-09-29T11:02:53.252Z,99.00
2016-09-29T11:03:53.764Z,99.00
2016-09-29T11:04:54.277Z,99.00
2016-09-29T11:05:54.788Z,96.00
2016-09-29T11:06:55.302Z,91.00
2016-09-29T11:07:55.817Z,81.00
2016-09-29T11:08:56.333Z,79.00
2016-09-29T11:09:56.852Z,99.00
2016-09-29T11:10:57.517Z,99.00
2016-09-29T11:11:57.883Z,83.00
2016-09-29T11:12:58.399Z,99.00
2016-09-29T11:13:58.917Z,97.00
2016-09-29T11:14:59.430Z,87.00
2016-09-29T11:16:00.092Z,91.00
2016-09-29T11:17:00.459Z,99.00
2016-09-29T11:18:00.989Z,99.00
2016-09-29T11:19:01.479Z,99.00
2016-09-29T11:20:01.988Z,99.00
2016-09-29T11:21:02.498Z,99.00
2016-09-29T11:22:03.009Z,99.00
2016-09-29T11:23:03.518Z,99.00
2016-09-29T11:24:04.036Z,99.00
2016-09-29T11:25:04.695Z,99.00
2016-09-29T11:26:05.062Z,99.00
2016-09-29T11:27:05.566Z,99.00
2016-09-29T11:28:06.077Z,99.00
2016-09-29T11:29:06.595Z,99.00
2016-09-29T11:30:07.103Z,99.00
2016-09-29T11:31:07.621Z,99.00
2016-09-29T11:32:08.146Z,99.00
2016-09-29T11:33:08.788Z,99.00
2016-09-29T11:34:09.149Z,99.00
2016-09-29T11:35:09.691Z,99.00
2016-09-29T11:36:10.179Z,99.00
2016-09-29T11:37:10.841Z,99.00
2016-09-29T11:38:11.202Z,99.00
2016-09-29T11:39:11.715Z,99.00
2016-09-29T11:40:12.229Z,99.00
2016-09-29T11:41:12.736Z,99.00
2016-09-29T11:42:13.397Z,99.00
2016-09-29T11:43:13.760Z,99.00
2016-09-29T11:44:14.276Z,99.00
2016-09-29T11:45:14.791Z,99.00
2016-09-29T11:46:15.308Z,99.00
2016-09-29T11:47:15.824Z,99.00
2016-09-29T11:48:16.361Z,99.00
2016-09-29T11:49:16.856Z,99.00
2016-09-29T11:50:17.519Z,99.00
2016-09-29T11:51:17.884Z,99.00
2016-09-29T11:52:18.391Z,99.00
2016-09-29T11:53:19.059Z,99.00
2016-09-29T11:54:19.427Z,99.00
2016-09-29T11:55:19.923Z,99.00
2016-09-29T11:56:20.582Z,99.00
2016-09-29T11:57:20.964Z,99.00
2016-09-29T11:58:21.458Z,99.00
2016-09-29T11:59:21.973Z,99.00
2016-09-29T12:00:22.490Z,99.00
2016-09-29T12:01:22.995Z,99.00
2016-09-29T12:02:23.505Z,99.00
2016-09-29T12:03:24.019Z,99.00
2016-09-29T12:04:24.524Z,99.00
2016-09-29T12:05:25.062Z,99.00
2016-09-29T12:06:25.546Z,99.00
2016-09-29T12:07:26.208Z,99.00
2016-09-29T12:08:26.572Z,99.00
2016-09-29T12:09:27.104Z,99.00
2016-09-29T12:10:27.595Z,99.00
2016-09-29T12:11:28.110Z,99.00
2016-09-29T12:12:28.618Z,99.00
2016-09-29T12:13:29.131Z,99.00
2016-09-29T12:14:29.640Z,99.00
2016-09-29T12:15:30.150Z,99.00
2016-09-29T12:16:30.961Z,99.00
2016-09-29T12:17:31.325Z,99.00
2016-09-29T12:18:31.696Z,99.00
2016-09-29T12:19:32.213Z,99.00
2016-09-29T12:20:32.710Z,99.00
2016-09-29T12:21:33.226Z,99.00
2016-09-29T12:22:33.734Z,99.00
2016-09-29T12:23:34.249Z,99.00
2016-09-29T12:24:34.784Z,99.00
2016-09-29T12:25:35.433Z,99.00
2016-09-29T12:26:35.800Z,99.00
2016-09-29T12:27:36.314Z,99.00
2016-09-29T12:28:36.972Z,99.00
2016-09-29T12:29:37.332Z,99.00
2016-09-29T12:30:37.842Z,90.00
2016-09-29T12:31:38.356Z,99.00
2016-09-29T12:32:39.029Z,99.00
2016-09-29T12:33:39.375Z,99.00
2016-09-29T12:34:39.885Z,99.00
2016-09-29T12:35:40.389Z,99.00
2016-09-29T12:36:40.901Z,99.00
2016-09-29T12:37:41.563Z,86.00
2016-09-29T12:38:41.929Z,82.00
2016-09-29T12:39:42.453Z,91.00
2016-09-29T12:40:42.944Z,93.00
2016-09-29T12:41:43.460Z,85.00
2016-09-29T12:42:44.121Z,77.00
2016-09-29T12:43:44.480Z,99.00
2016-09-29T12:44:44.988Z,99.00
2016-09-29T12:45:45.508Z,99.00
2016-09-29T12:46:46.170Z,97.00
2016-09-29T12:47:46.535Z,70.00
2016-09-29T12:48:47.066Z,49.00
2016-09-29T12:49:47.554Z,32.00
2016-09-29T12:50:48.062Z,29.00
2016-09-29T12:51:48.574Z,37.00
2016-09-29T12:52:49.089Z,37.00
2016-09-29T12:53:49.599Z,41.00
2016-09-29T12:54:50.415Z,43.00
2016-09-29T12:55:50.775Z,44.00
2016-09-29T12:56:51.134Z,43.00
2016-09-29T12:57:51.643Z,40.00
2016-09-29T12:58:52.315Z,37.00
2016-09-29T12:59:52.675Z,36.00
2016-09-29T13:00:53.185Z,38.00
2016-09-29T13:01:53.705Z,35.00
2016-09-29T13:02:54.219Z,69.00
2016-09-29T13:03:54.885Z,73.00
2016-09-29T13:04:55.260Z,90.00
2016-09-29T13:05:55.749Z,98.00
2016-09-29T13:06:56.262Z,99.00
2016-09-29T13:07:56.783Z,99.00
2016-09-29T13:08:57.440Z,99.00
2016-09-29T13:09:57.804Z,99.00
2016-09-29T13:10:58.316Z,99.00
2016-09-29T13:11:58.830Z,95.00